createdAt,value
2023-04-08T00:00:29.162Z,7.74
2023-04-08T00:02:55.576Z,7.71
2023-04-08T00:05:22.006Z,7.82
2023-04-08T00:07:48.365Z,7.28
2023-04-08T00:10:16.209Z,7.28
2023-04-08T00:12:42.603Z,7.08
2023-04-08T00:15:09.950Z,7.44
2023-04-08T00:17:36.453Z,7.49
2023-04-08T00:20:02.988Z,7.59
2023-04-08T00:22:29.354Z,7.26
2023-04-08T00:24:55.731Z,7.49
2023-04-08T00:27:23.487Z,7.69
2023-04-08T00:29:49.832Z,7.34
2023-04-08T00:32:16.190Z,7.27
2023-04-08T00:34:42.649Z,7.88
2023-04-08T00:37:09.162Z,7.55
2023-04-08T00:39:36.483Z,7.67
2023-04-08T00:42:02.928Z,7.91
2023-04-08T00:44:30.654Z,8.28
2023-04-08T00:46:57.052Z,8.30
2023-04-08T00:49:23.420Z,8.19
2023-04-08T00:51:49.959Z,8.30
2023-04-08T00:54:16.302Z,8.81
2023-04-08T00:56:43.757Z,8.40
2023-04-08T00:59:10.494Z,7.64
2023-04-08T01:01:44.213Z,7.63
2023-04-08T01:04:17.046Z,8.11
2023-04-08T01:06:51.306Z,8.38
2023-04-08T01:09:19.354Z,8.81
2023-04-08T01:11:49.061Z,8.96
2023-04-08T01:14:20.112Z,8.82
2023-04-08T01:16:47.981Z,8.95
2023-04-08T01:19:27.901Z,8.42
2023-04-08T01:22:01.380Z,8.63
2023-04-08T01:24:30.919Z,8.21
2023-04-08T01:27:00.796Z,7.45
2023-04-08T01:29:29.571Z,7.78
2023-04-08T01:31:57.085Z,7.90
2023-04-08T01:34:25.045Z,7.70
2023-04-08T01:36:53.507Z,7.49
2023-04-08T01:39:20.971Z,7.00
2023-04-08T01:41:48.479Z,7.61
2023-04-08T01:44:18.585Z,7.39
2023-04-08T01:46:45.410Z,7.43
2023-04-08T01:49:12.310Z,8.27
2023-04-08T01:51:39.326Z,8.55
2023-04-08T01:54:05.928Z,8.15
2023-04-08T01:56:36.555Z,8.57
2023-04-08T01:59:09.562Z,8.93
2023-04-08T02:01:37.721Z,8.95
2023-04-08T02:04:04.493Z,9.04
2023-04-08T02:06:31.680Z,9.24
2023-04-08T02:08:59.725Z,9.23
2023-04-08T02:11:26.212Z,8.98
2023-04-08T02:13:53.199Z,8.87
2023-04-08T02:16:24.216Z,8.93
2023-04-08T02:18:56.385Z,9.08
2023-04-08T02:21:28.448Z,8.88
2023-04-08T02:23:55.557Z,9.10
2023-04-08T02:26:23.126Z,8.96
2023-04-08T02:28:50.784Z,9.06
2023-04-08T02:31:19.581Z,8.90
2023-04-08T02:33:47.036Z,8.94
2023-04-08T02:36:15.788Z,8.95
2023-04-08T02:38:42.154Z,8.95
2023-04-08T02:41:08.686Z,8.65
2023-04-08T02:43:35.159Z,9.15
2023-04-08T02:46:01.843Z,8.86
2023-04-08T02:48:28.269Z,8.99
2023-04-08T02:50:54.640Z,9.05
2023-04-08T02:53:23.702Z,9.24
2023-04-08T02:55:50.087Z,8.81
2023-04-08T02:58:16.484Z,9.33
2023-04-08T03:00:42.855Z,8.27
2023-04-08T03:03:09.269Z,9.12
2023-04-08T03:05:35.759Z,8.22
2023-04-08T03:08:02.261Z,8.79
2023-04-08T03:10:30.354Z,8.76
2023-04-08T03:12:56.712Z,8.90
2023-04-08T03:15:23.854Z,8.20
2023-04-08T03:17:50.328Z,8.83
2023-04-08T03:20:16.729Z,9.04
2023-04-08T03:22:43.069Z,8.80
2023-04-08T03:25:09.819Z,8.58
2023-04-08T03:27:37.485Z,9.05
2023-04-08T03:30:04.631Z,8.72
2023-04-08T03:32:31.270Z,8.90
2023-04-08T03:34:57.637Z,8.89
2023-04-08T03:37:24.020Z,7.92
2023-04-08T03:39:50.546Z,8.85
2023-04-08T03:42:17.028Z,8.83
2023-04-08T03:44:45.028Z,9.18
2023-04-08T03:47:11.594Z,8.73
2023-04-08T03:49:37.965Z,8.88
2023-04-08T03:52:04.540Z,9.01
2023-04-08T03:54:30.903Z,8.17
2023-04-08T03:56:57.279Z,8.68
2023-04-08T03:59:23.720Z,9.07
2023-04-08T04:01:51.623Z,8.72
2023-04-08T04:04:18.288Z,8.89
2023-04-08T04:06:44.763Z,9.21
2023-04-08T04:09:11.151Z,9.07
2023-04-08T04:11:37.672Z,9.42
2023-04-08T04:14:04.052Z,9.25
2023-04-08T04:16:32.807Z,8.82
2023-04-08T04:19:00.906Z,8.95
2023-04-08T04:21:27.350Z,8.90
2023-04-08T04:23:54.160Z,9.04
2023-04-08T04:26:20.521Z,8.30
2023-04-08T04:28:47.082Z,8.08
2023-04-08T04:31:18.514Z,7.72
2023-04-08T04:33:44.887Z,8.78
2023-04-08T04:36:12.602Z,8.62
2023-04-08T04:38:38.965Z,8.45
2023-04-08T04:41:05.593Z,7.58
2023-04-08T04:43:31.951Z,8.19
2023-04-08T04:45:58.348Z,7.42
2023-04-08T04:48:24.712Z,7.81
2023-04-08T04:50:54.883Z,8.32
2023-04-08T04:53:22.788Z,8.74
2023-04-08T04:55:49.876Z,8.34
2023-04-08T04:58:16.237Z,8.75
2023-04-08T05:00:42.618Z,8.38
2023-04-08T05:03:09.218Z,8.93
2023-04-08T05:05:35.665Z,9.25
2023-04-08T05:08:02.033Z,9.10
2023-04-08T05:10:29.779Z,7.44
2023-04-08T05:12:56.164Z,7.37
2023-04-08T05:15:22.719Z,7.14
2023-04-08T05:17:49.121Z,7.32
2023-04-08T05:20:17.497Z,7.43
2023-04-08T05:22:44.114Z,7.59
2023-04-08T05:25:11.128Z,7.40
2023-04-08T05:27:38.807Z,6.71
2023-04-08T05:30:06.606Z,7.14
2023-04-08T05:32:33.058Z,7.26
2023-04-08T05:35:02.288Z,7.38
2023-04-08T05:37:28.836Z,8.07
2023-04-08T05:39:55.186Z,7.41
2023-04-08T05:42:21.639Z,7.74
2023-04-08T05:44:49.388Z,7.83
2023-04-08T05:47:15.756Z,8.02
2023-04-08T05:49:42.135Z,7.79
2023-04-08T05:52:08.556Z,6.90
2023-04-08T05:54:34.928Z,6.98
2023-04-08T05:57:01.282Z,7.50
2023-04-08T05:59:27.652Z,7.38
2023-04-08T06:01:55.380Z,7.39
2023-04-08T06:04:21.990Z,7.57
2023-04-08T06:06:48.451Z,8.47
2023-04-08T06:09:14.859Z,8.59
2023-04-08T06:11:42.373Z,8.88
2023-04-08T06:14:08.782Z,7.45
2023-04-08T06:16:35.170Z,6.90
2023-04-08T06:19:02.890Z,7.19
2023-04-08T06:21:29.260Z,6.96
2023-04-08T06:23:55.655Z,8.01
2023-04-08T06:26:22.022Z,7.23
2023-04-08T06:28:48.779Z,7.48
2023-04-08T06:31:15.317Z,7.24
2023-04-08T06:33:41.679Z,7.30
2023-04-08T06:36:09.562Z,7.76
2023-04-08T06:38:35.989Z,8.03
2023-04-08T06:41:03.003Z,7.69
2023-04-08T06:43:29.415Z,8.64
2023-04-08T06:45:55.876Z,8.90
2023-04-08T06:48:22.433Z,9.27
2023-04-08T06:50:48.874Z,7.53
2023-04-08T06:53:16.538Z,8.45
2023-04-08T06:55:42.905Z,8.49
2023-04-08T06:58:09.294Z,8.95
2023-04-08T07:00:35.619Z,8.39
2023-04-08T07:03:02.220Z,8.12
2023-04-08T07:05:28.700Z,7.88
2023-04-08T07:07:55.186Z,7.55
2023-04-08T07:10:22.944Z,7.52
2023-04-08T07:12:49.308Z,7.69
2023-04-08T07:15:15.670Z,7.54
2023-04-08T07:17:42.115Z,7.62
2023-04-08T07:20:09.417Z,9.15
2023-04-08T07:22:35.785Z,8.30
2023-04-08T07:25:02.175Z,8.33
2023-04-08T07:27:29.976Z,8.23
2023-04-08T07:29:56.365Z,8.57
2023-04-08T07:32:22.766Z,8.40
2023-04-08T07:34:49.225Z,9.20
2023-04-08T07:37:15.645Z,8.70
2023-04-08T07:39:42.000Z,8.89
2023-04-08T07:42:08.548Z,8.44
2023-04-08T07:44:36.233Z,8.63
2023-04-08T07:47:02.648Z,8.24
2023-04-08T07:49:29.039Z,9.06
2023-04-08T07:51:55.413Z,8.22
2023-04-08T07:54:21.816Z,8.83
2023-04-08T07:56:48.210Z,9.42
2023-04-08T07:59:14.721Z,9.46
2023-04-08T08:01:42.552Z,10.08
2023-04-08T08:04:09.123Z,10.26
2023-04-08T08:06:35.725Z,9.31
2023-04-08T08:09:02.092Z,9.59
2023-04-08T08:11:28.479Z,9.14
2023-04-08T08:13:55.124Z,8.93
2023-04-08T08:16:21.516Z,8.64
2023-04-08T08:18:49.267Z,9.81
2023-04-08T08:21:15.616Z,9.30
2023-04-08T08:23:41.941Z,8.69
2023-04-08T08:26:10.007Z,9.12
2023-04-08T08:28:37.268Z,9.95
2023-04-08T08:31:03.731Z,10.42
2023-04-08T08:33:30.129Z,9.85
2023-04-08T08:35:58.197Z,10.33
2023-04-08T08:38:24.834Z,9.52
2023-04-08T08:40:54.934Z,9.50
2023-04-08T08:43:21.514Z,8.76
2023-04-08T08:45:47.953Z,9.30
2023-04-08T08:48:14.428Z,10.45
2023-04-08T08:50:40.811Z,10.32
2023-04-08T08:53:08.518Z,10.41
2023-04-08T08:56:00.214Z,9.26
2023-04-08T08:58:21.484Z,10.32
2023-04-08T09:00:47.860Z,10.52
2023-04-08T09:03:16.365Z,10.65
2023-04-08T09:05:53.187Z,10.57
2023-04-08T09:08:30.275Z,10.83
2023-04-08T09:11:10.999Z,10.49
2023-04-08T09:13:37.496Z,10.61
2023-04-08T09:16:06.004Z,10.92
2023-04-08T09:18:33.373Z,10.24
2023-04-08T09:21:00.359Z,11.02
2023-04-08T09:23:39.416Z,8.95
2023-04-08T09:26:09.741Z,8.26
2023-04-08T09:28:36.213Z,8.91
2023-04-08T09:31:18.185Z,9.68
2023-04-08T09:33:44.561Z,10.24
2023-04-08T09:36:11.013Z,10.67
2023-04-08T09:38:38.721Z,8.79
2023-04-08T09:41:07.404Z,8.27
2023-04-08T09:43:41.619Z,8.57
2023-04-08T09:46:11.421Z,8.87
2023-04-08T09:48:42.929Z,9.38
2023-04-08T09:51:13.156Z,9.46
2023-04-08T09:53:47.395Z,10.23
2023-04-08T09:56:15.610Z,11.04
2023-04-08T09:58:49.121Z,10.82
2023-04-08T10:01:17.789Z,9.97
2023-04-08T10:03:49.847Z,9.38
2023-04-08T10:06:16.947Z,9.88
2023-04-08T10:08:45.164Z,10.72
2023-04-08T10:11:12.057Z,9.06
2023-04-08T10:13:38.511Z,8.68
2023-04-08T10:16:19.185Z,9.05
2023-04-08T10:18:45.616Z,9.00
2023-04-08T10:21:36.663Z,9.37
2023-04-08T10:24:07.301Z,9.92
2023-04-08T10:26:35.774Z,10.72
2023-04-08T10:29:42.013Z,10.55
2023-04-08T10:32:08.524Z,9.78
2023-04-08T10:34:34.937Z,9.33
2023-04-08T10:37:01.381Z,9.68
2023-04-08T10:39:30.406Z,10.57
2023-04-08T10:41:56.778Z,10.42
2023-04-08T10:44:25.178Z,10.91
2023-04-08T10:46:52.734Z,10.00
2023-04-08T10:49:19.551Z,10.37
2023-04-08T10:51:46.579Z,10.79
2023-04-08T10:54:14.412Z,10.61
2023-04-08T10:56:48.830Z,10.89
2023-04-08T10:59:16.779Z,10.70
2023-04-08T11:01:44.755Z,9.91
2023-04-08T11:04:12.481Z,9.39
2023-04-08T11:06:38.948Z,9.88
2023-04-08T11:09:05.340Z,10.43
2023-04-08T11:11:32.554Z,9.20
2023-04-08T11:14:00.883Z,9.63
2023-04-08T11:16:27.924Z,9.95
2023-04-08T11:18:54.631Z,10.68
2023-04-08T11:21:23.370Z,9.44
2023-04-08T11:23:50.074Z,9.87
2023-04-08T11:26:17.498Z,10.78
2023-04-08T11:28:44.145Z,10.11
2023-04-08T11:31:12.689Z,9.78
2023-04-08T11:33:45.313Z,9.61
2023-04-08T11:36:12.416Z,9.34
2023-04-08T11:38:39.538Z,10.53
2023-04-08T11:41:06.034Z,10.96
2023-04-08T11:43:32.585Z,11.15
2023-04-08T11:45:59.069Z,10.46
2023-04-08T11:48:26.875Z,9.43
2023-04-08T11:51:03.028Z,9.24
2023-04-08T11:53:29.446Z,8.89
2023-04-08T11:55:55.865Z,8.95
2023-04-08T11:58:22.238Z,9.46
2023-04-08T12:00:48.622Z,9.16
2023-04-08T12:03:15.111Z,8.43
2023-04-08T12:05:42.947Z,9.76
2023-04-08T12:08:09.381Z,9.90
2023-04-08T12:10:35.758Z,9.46
2023-04-08T12:13:02.097Z,10.26
2023-04-08T12:15:28.872Z,10.59
2023-04-08T12:17:55.385Z,10.88
2023-04-08T12:20:21.766Z,11.23
2023-04-08T12:22:49.486Z,11.03
2023-04-08T12:25:15.841Z,10.50
2023-04-08T12:27:42.197Z,11.02
2023-04-08T12:30:09.982Z,10.87
2023-04-08T12:32:36.386Z,10.36
2023-04-08T12:35:04.689Z,9.53
2023-04-08T12:37:31.102Z,9.39
2023-04-08T12:39:58.773Z,9.48
2023-04-08T12:42:25.158Z,10.41
2023-04-08T12:44:51.540Z,10.24
2023-04-08T12:47:17.981Z,9.81
2023-04-08T12:49:49.339Z,9.57
2023-04-08T12:52:16.653Z,10.97
2023-04-08T12:54:43.064Z,11.22
2023-04-08T12:57:10.796Z,10.71
2023-04-08T12:59:37.295Z,9.75
2023-04-08T13:02:03.677Z,9.79
2023-04-08T13:04:30.052Z,10.89
2023-04-08T13:06:56.418Z,11.22
2023-04-08T13:09:22.827Z,10.35
2023-04-08T13:11:49.588Z,10.52
2023-04-08T13:14:17.430Z,9.56
2023-04-08T13:16:43.860Z,9.90
2023-04-08T13:19:10.266Z,9.98
2023-04-08T13:21:36.647Z,9.43
2023-04-08T13:24:03.292Z,10.10
2023-04-08T13:26:29.703Z,10.73
2023-04-08T13:28:57.778Z,11.43
2023-04-08T13:31:26.093Z,11.23
2023-04-08T13:33:54.522Z,9.97
2023-04-08T13:36:22.583Z,10.36
2023-04-08T13:38:49.056Z,11.14
2023-04-08T13:41:15.560Z,11.03
2023-04-08T13:43:41.948Z,11.56
2023-04-08T13:46:08.351Z,11.80
2023-04-08T13:48:36.044Z,12.23
2023-04-08T13:51:02.529Z,12.14
2023-04-08T13:53:29.080Z,11.23
2023-04-08T13:55:55.433Z,10.69
2023-04-08T13:58:24.174Z,11.35
2023-04-08T14:00:51.029Z,12.08
2023-04-08T14:03:17.523Z,12.38
2023-04-08T14:05:45.335Z,11.98
2023-04-08T14:08:11.785Z,12.04
2023-04-08T14:10:38.134Z,11.28
2023-04-08T14:13:04.504Z,11.09
2023-04-08T14:15:30.876Z,11.55
2023-04-08T14:17:57.297Z,9.84
2023-04-08T14:20:23.935Z,10.60
2023-04-08T14:22:51.609Z,10.35
2023-04-08T14:25:17.957Z,10.47
2023-04-08T14:27:56.732Z,10.19
2023-04-08T14:30:24.665Z,11.56
2023-04-08T14:32:51.099Z,10.96
2023-04-08T14:35:17.709Z,11.42
2023-04-08T14:37:44.139Z,12.03
2023-04-08T14:40:12.591Z,11.61
2023-04-08T14:42:38.961Z,12.19
2023-04-08T14:45:06.592Z,11.85
2023-04-08T14:47:33.011Z,11.88
2023-04-08T14:49:59.974Z,11.96
2023-04-08T14:52:26.338Z,10.35
2023-04-08T14:54:52.728Z,9.84
2023-04-08T14:57:20.427Z,9.86
2023-04-08T14:59:46.777Z,10.53
2023-04-08T15:02:13.292Z,10.59
2023-04-08T15:04:39.791Z,10.22
2023-04-08T15:07:06.274Z,11.28
2023-04-08T15:09:32.974Z,10.14
2023-04-08T15:11:59.355Z,11.43
2023-04-08T15:14:27.072Z,10.07
2023-04-08T15:16:53.433Z,9.92
2023-04-08T15:19:19.832Z,10.41
2023-04-08T15:21:46.236Z,10.74
2023-04-08T15:24:12.627Z,10.93
2023-04-08T15:26:38.977Z,10.10
2023-04-08T15:29:05.386Z,10.08
2023-04-08T15:31:33.188Z,10.68
2023-04-08T15:33:59.582Z,10.13
2023-04-08T15:36:25.966Z,10.04
2023-04-08T15:38:52.475Z,9.94
2023-04-08T15:41:19.529Z,11.08
2023-04-08T15:43:46.028Z,10.33
2023-04-08T15:46:17.511Z,10.62
2023-04-08T15:48:45.209Z,10.46
2023-04-08T15:51:11.574Z,9.93
2023-04-08T15:53:37.961Z,9.96
2023-04-08T15:56:04.799Z,10.48
2023-04-08T15:58:31.187Z,10.46
2023-04-08T16:00:58.126Z,10.22
2023-04-08T16:03:24.761Z,9.64
2023-04-08T16:05:52.509Z,9.44
2023-04-08T16:08:18.885Z,9.46
2023-04-08T16:10:45.464Z,9.55
2023-04-08T16:13:11.834Z,9.12
2023-04-08T16:15:38.228Z,9.31
2023-04-08T16:18:04.765Z,9.49
2023-04-08T16:20:31.274Z,9.26
2023-04-08T16:22:58.973Z,9.47
2023-04-08T16:25:27.051Z,9.43
2023-04-08T16:27:54.536Z,9.22
2023-04-08T16:30:20.971Z,9.24
2023-04-08T16:32:47.357Z,9.31
2023-04-08T16:35:13.766Z,9.27
2023-04-08T16:37:40.286Z,9.26
2023-04-08T16:40:09.374Z,9.23
2023-04-08T16:42:35.792Z,9.07
2023-04-08T16:45:02.266Z,8.96
2023-04-08T16:47:28.838Z,8.90
2023-04-08T16:49:55.325Z,8.73
2023-04-08T16:52:21.705Z,8.74
2023-04-08T16:54:48.049Z,8.92
2023-04-08T16:57:15.725Z,9.20
2023-04-08T16:59:42.222Z,9.14
2023-04-08T17:02:08.889Z,9.32
2023-04-08T17:04:35.341Z,9.64
2023-04-08T17:07:01.825Z,9.27
2023-04-08T17:09:28.178Z,9.44
2023-04-08T17:11:54.514Z,9.35
2023-04-08T17:14:22.383Z,9.21
2023-04-08T17:16:48.780Z,9.17
2023-04-08T17:19:15.219Z,9.32
2023-04-08T17:21:41.599Z,9.21
2023-04-08T17:24:07.984Z,9.83
2023-04-08T17:26:34.350Z,9.50
2023-04-08T17:29:00.778Z,9.18
2023-04-08T17:31:28.592Z,9.12
2023-04-08T17:33:54.966Z,8.86
2023-04-08T17:36:21.325Z,9.16
2023-04-08T17:38:47.665Z,9.39
2023-04-08T17:41:18.701Z,9.27
2023-04-08T17:43:51.599Z,9.08
2023-04-08T17:46:18.240Z,8.95
2023-04-08T17:48:45.945Z,9.48
2023-04-08T17:51:12.385Z,9.34
2023-04-08T17:53:38.907Z,9.26
2023-04-08T17:56:05.815Z,9.03
2023-04-08T17:58:32.225Z,9.58
2023-04-08T18:00:58.681Z,9.92
2023-04-08T18:03:25.154Z,9.64
2023-04-08T18:05:53.017Z,9.09
2023-04-08T18:08:19.376Z,9.23
2023-04-08T18:10:46.769Z,9.70
2023-04-08T18:13:13.402Z,9.71
2023-04-08T18:15:39.777Z,10.14
2023-04-08T18:18:06.723Z,9.71
2023-04-08T18:20:35.263Z,9.77
2023-04-08T18:23:03.188Z,9.72
2023-04-08T18:25:29.632Z,9.90
2023-04-08T18:27:55.996Z,9.42
2023-04-08T18:30:22.463Z,9.66
2023-04-08T18:32:48.891Z,9.76
2023-04-08T18:35:15.533Z,9.42
2023-04-08T18:37:42.095Z,9.62
2023-04-08T18:40:10.781Z,9.68
2023-04-08T18:42:37.186Z,9.42
2023-04-08T18:45:04.163Z,9.70
2023-04-08T18:47:30.563Z,9.73
2023-04-08T18:49:56.932Z,9.54
2023-04-08T18:52:23.287Z,9.79
2023-04-08T18:54:49.670Z,9.47
2023-04-08T18:57:17.368Z,9.53
2023-04-08T18:59:46.535Z,9.60
2023-04-08T19:02:13.005Z,9.56
2023-04-08T19:04:39.531Z,9.57
2023-04-08T19:07:05.920Z,9.73
2023-04-08T19:09:32.305Z,9.39
2023-04-08T19:11:58.677Z,9.18
2023-04-08T19:14:26.379Z,9.45
2023-04-08T19:16:52.822Z,9.85
2023-04-08T19:19:19.244Z,9.11
2023-04-08T19:21:45.676Z,9.18
2023-04-08T19:24:12.018Z,9.96
2023-04-08T19:26:38.419Z,9.85
2023-04-08T19:29:04.804Z,9.36
2023-04-08T19:31:32.601Z,9.78
2023-04-08T19:33:58.974Z,9.98
2023-04-08T19:36:25.414Z,9.05
2023-04-08T19:38:51.771Z,9.07
2023-04-08T19:41:18.152Z,9.73
2023-04-08T19:43:44.500Z,9.89
2023-04-08T19:46:10.883Z,9.16
2023-04-08T19:48:38.604Z,9.40
2023-04-08T19:51:05.099Z,9.29
2023-04-08T19:53:31.468Z,9.65
2023-04-08T19:56:01.143Z,9.39
2023-04-08T19:58:27.846Z,9.45
2023-04-08T20:00:54.290Z,9.21
2023-04-08T20:03:20.934Z,9.14
2023-04-08T20:05:48.902Z,9.37
2023-04-08T20:08:15.269Z,9.39
2023-04-08T20:10:41.737Z,9.38
2023-04-08T20:13:08.127Z,9.44
2023-04-08T20:15:34.490Z,9.34
2023-04-08T20:18:00.904Z,9.26
2023-04-08T20:20:28.902Z,9.53
2023-04-08T20:22:57.676Z,9.06
2023-04-08T20:25:24.246Z,8.59
2023-04-08T20:27:50.598Z,8.69
2023-04-08T20:30:17.024Z,8.84
2023-04-08T20:32:43.577Z,9.00
2023-04-08T20:35:10.191Z,9.13
2023-04-08T20:37:36.614Z,8.91
2023-04-08T20:40:05.702Z,8.44
2023-04-08T20:42:32.132Z,8.84
2023-04-08T20:44:58.592Z,9.05
2023-04-08T20:47:25.110Z,8.79
2023-04-08T20:49:51.544Z,8.78
2023-04-08T20:52:17.955Z,9.22
2023-04-08T20:54:44.418Z,8.91
2023-04-08T20:57:12.146Z,8.93
2023-04-08T20:59:38.532Z,9.02
2023-04-08T21:02:05.106Z,9.00
2023-04-08T21:04:31.840Z,8.68
2023-04-08T21:06:58.250Z,8.98
2023-04-08T21:09:24.682Z,8.65
2023-04-08T21:11:51.045Z,8.53
2023-04-08T21:14:19.078Z,8.62
2023-04-08T21:16:45.672Z,8.43
2023-04-08T21:19:12.156Z,8.76
2023-04-08T21:21:38.563Z,8.47
2023-04-08T21:24:05.564Z,8.39
2023-04-08T21:26:31.937Z,8.12
2023-04-08T21:28:58.304Z,8.37
2023-04-08T21:31:26.070Z,8.43
2023-04-08T21:33:52.447Z,8.43
2023-04-08T21:36:18.810Z,7.94
2023-04-08T21:38:45.391Z,8.13
2023-04-08T21:41:11.727Z,8.25
2023-04-08T21:43:38.112Z,8.14
2023-04-08T21:46:05.365Z,8.23
2023-04-08T21:48:33.094Z,8.25
2023-04-08T21:50:59.475Z,8.39
2023-04-08T21:53:25.904Z,8.40
2023-04-08T21:55:52.300Z,8.29
2023-04-08T21:58:18.675Z,8.57
2023-04-08T22:00:45.109Z,8.25
2023-04-08T22:03:11.738Z,8.44
2023-04-08T22:05:39.611Z,8.40
2023-04-08T22:08:06.007Z,8.38
2023-04-08T22:10:32.385Z,8.42
2023-04-08T22:12:58.744Z,8.24
2023-04-08T22:15:25.497Z,8.23
2023-04-08T22:17:51.878Z,8.22
2023-04-08T22:20:18.465Z,8.05
2023-04-08T22:22:46.164Z,8.19
2023-04-08T22:25:12.529Z,7.93
2023-04-08T22:27:38.900Z,7.71
2023-04-08T22:30:06.664Z,8.24
2023-04-08T22:32:33.100Z,7.99
2023-04-08T22:34:59.462Z,8.39
2023-04-08T22:37:25.867Z,7.36
2023-04-08T22:39:53.567Z,7.33
2023-04-08T22:42:19.987Z,7.64
2023-04-08T22:44:46.702Z,7.65
2023-04-08T22:47:13.045Z,7.73
2023-04-08T22:49:39.394Z,7.78
2023-04-08T22:52:05.761Z,7.89
2023-04-08T22:54:32.113Z,8.07
2023-04-08T22:56:59.796Z,8.23
2023-04-08T22:59:26.177Z,7.45
2023-04-08T23:01:52.590Z,7.72
2023-04-08T23:04:19.221Z,7.74
2023-04-08T23:06:45.640Z,8.01
2023-04-08T23:09:12.160Z,8.09
2023-04-08T23:11:38.525Z,7.58
2023-04-08T23:14:06.221Z,7.47
2023-04-08T23:16:32.633Z,7.78
2023-04-08T23:18:59.009Z,7.62
2023-04-08T23:21:25.453Z,7.77
2023-04-08T23:23:51.793Z,7.18
2023-04-08T23:26:18.541Z,7.66
2023-04-08T23:28:44.971Z,7.71
2023-04-08T23:31:12.866Z,7.61
2023-04-08T23:33:39.386Z,7.53
2023-04-08T23:36:07.342Z,7.44
2023-04-08T23:38:33.724Z,7.22
2023-04-08T23:41:00.071Z,7.43
2023-04-08T23:43:26.454Z,7.11
2023-04-08T23:45:52.807Z,6.35
2023-04-08T23:48:20.472Z,6.25
2023-04-08T23:50:50.353Z,6.24
2023-04-08T23:53:16.755Z,6.15
2023-04-08T23:55:43.179Z,5.70
2023-04-08T23:58:09.546Z,5.71
